sensor_id;sensor_type;location;lat;lon;timestamp;P1;durP1;ratioP1;P2;durP2;ratioP2
69970;SDS011;57301;50.328;8.542;2022-08-21T00:02:00;10.20;;;6.23;;
69970;SDS011;57301;50.328;8.542;2022-08-21T00:04:28;9.27;;;6.30;;
69970;SDS011;57301;50.328;8.542;2022-08-21T00:06:55;9.90;;;6.55;;
69970;SDS011;57301;50.328;8.542;2022-08-21T00:09:22;9.38;;;6.32;;
69970;SDS011;57301;50.328;8.542;2022-08-21T00:11:49;11.40;;;6.30;;
69970;SDS011;57301;50.328;8.542;2022-08-21T00:14:15;9.87;;;6.60;;
69970;SDS011;57301;50.328;8.542;2022-08-21T00:16:42;9.55;;;6.22;;
69970;SDS011;57301;50.328;8.542;2022-08-21T00:19:09;10.23;;;6.13;;
69970;SDS011;57301;50.328;8.542;2022-08-21T00:21:35;8.90;;;6.05;;
69970;SDS011;57301;50.328;8.542;2022-08-21T00:24:02;9.23;;;6.47;;
69970;SDS011;57301;50.328;8.542;2022-08-21T00:26:29;10.17;;;6.30;;
69970;SDS011;57301;50.328;8.542;2022-08-21T00:28:56;10.55;;;6.15;;
69970;SDS011;57301;50.328;8.542;2022-08-21T00:31:24;8.95;;;6.35;;
69970;SDS011;57301;50.328;8.542;2022-08-21T00:33:50;9.80;;;6.68;;
69970;SDS011;57301;50.328;8.542;2022-08-21T00:36:23;10.55;;;6.45;;
69970;SDS011;57301;50.328;8.542;2022-08-21T00:38:49;9.60;;;5.97;;
69970;SDS011;57301;50.328;8.542;2022-08-21T00:41:16;10.35;;;6.55;;
69970;SDS011;57301;50.328;8.542;2022-08-21T00:44:02;11.07;;;6.88;;
69970;SDS011;57301;50.328;8.542;2022-08-21T00:46:30;10.48;;;6.60;;
69970;SDS011;57301;50.328;8.542;2022-08-21T00:48:57;10.70;;;7.15;;
69970;SDS011;57301;50.328;8.542;2022-08-21T00:54:27;8.98;;;6.80;;
69970;SDS011;57301;50.328;8.542;2022-08-21T00:56:57;10.98;;;6.35;;
69970;SDS011;57301;50.328;8.542;2022-08-21T00:59:27;9.18;;;6.45;;
69970;SDS011;57301;50.328;8.542;2022-08-21T01:01:55;10.13;;;6.85;;
69970;SDS011;57301;50.328;8.542;2022-08-21T01:04:22;12.33;;;6.57;;
69970;SDS011;57301;50.328;8.542;2022-08-21T01:06:49;10.05;;;6.70;;
69970;SDS011;57301;50.328;8.542;2022-08-21T01:09:17;9.57;;;6.82;;
69970;SDS011;57301;50.328;8.542;2022-08-21T01:11:45;9.65;;;6.75;;
69970;SDS011;57301;50.328;8.542;2022-08-21T01:14:11;9.50;;;6.35;;
69970;SDS011;57301;50.328;8.542;2022-08-21T01:16:41;10.73;;;6.60;;
69970;SDS011;57301;50.328;8.542;2022-08-21T01:19:12;9.70;;;6.68;;
69970;SDS011;57301;50.328;8.542;2022-08-21T01:21:39;8.15;;;6.45;;
69970;SDS011;57301;50.328;8.542;2022-08-21T01:24:09;10.98;;;6.65;;
69970;SDS011;57301;50.328;8.542;2022-08-21T01:26:36;12.27;;;6.28;;
69970;SDS011;57301;50.328;8.542;2022-08-21T01:31:32;10.88;;;6.25;;
69970;SDS011;57301;50.328;8.542;2022-08-21T01:33:59;9.75;;;6.25;;
69970;SDS011;57301;50.328;8.542;2022-08-21T01:36:26;10.20;;;7.05;;
69970;SDS011;57301;50.328;8.542;2022-08-21T01:38:53;10.27;;;6.15;;
69970;SDS011;57301;50.328;8.542;2022-08-21T01:41:19;9.20;;;6.87;;
69970;SDS011;57301;50.328;8.542;2022-08-21T01:43:46;11.02;;;6.80;;
69970;SDS011;57301;50.328;8.542;2022-08-21T01:46:13;9.82;;;5.82;;
69970;SDS011;57301;50.328;8.542;2022-08-21T01:48:40;11.30;;;6.80;;
69970;SDS011;57301;50.328;8.542;2022-08-21T01:51:07;12.35;;;6.30;;
69970;SDS011;57301;50.328;8.542;2022-08-21T01:53:34;11.00;;;6.50;;
69970;SDS011;57301;50.328;8.542;2022-08-21T01:56:04;11.38;;;6.90;;
69970;SDS011;57301;50.328;8.542;2022-08-21T01:58:37;10.07;;;6.20;;
69970;SDS011;57301;50.328;8.542;2022-08-21T02:01:05;10.05;;;6.63;;
69970;SDS011;57301;50.328;8.542;2022-08-21T02:03:31;12.23;;;7.50;;
69970;SDS011;57301;50.328;8.542;2022-08-21T02:06:01;10.20;;;6.50;;
69970;SDS011;57301;50.328;8.542;2022-08-21T02:08:29;11.02;;;6.53;;
69970;SDS011;57301;50.328;8.542;2022-08-21T02:10:55;13.70;;;6.57;;
69970;SDS011;57301;50.328;8.542;2022-08-21T02:13:22;11.43;;;6.80;;
69970;SDS011;57301;50.328;8.542;2022-08-21T02:15:48;9.63;;;6.50;;
69970;SDS011;57301;50.328;8.542;2022-08-21T02:18:15;8.47;;;5.97;;
69970;SDS011;57301;50.328;8.542;2022-08-21T02:20:44;11.77;;;6.65;;
69970;SDS011;57301;50.328;8.542;2022-08-21T02:23:13;10.40;;;7.00;;
69970;SDS011;57301;50.328;8.542;2022-08-21T02:25:40;12.00;;;6.55;;
69970;SDS011;57301;50.328;8.542;2022-08-21T02:28:08;10.45;;;6.13;;
69970;SDS011;57301;50.328;8.542;2022-08-21T02:30:39;12.27;;;7.20;;
69970;SDS011;57301;50.328;8.542;2022-08-21T02:33:09;11.02;;;6.90;;
69970;SDS011;57301;50.328;8.542;2022-08-21T02:35:37;12.50;;;7.40;;
69970;SDS011;57301;50.328;8.542;2022-08-21T02:38:06;10.68;;;6.57;;
69970;SDS011;57301;50.328;8.542;2022-08-21T02:40:39;11.15;;;7.20;;
69970;SDS011;57301;50.328;8.542;2022-08-21T02:43:14;10.80;;;7.10;;
69970;SDS011;57301;50.328;8.542;2022-08-21T02:45:41;11.07;;;6.95;;
69970;SDS011;57301;50.328;8.542;2022-08-21T02:48:10;12.18;;;7.65;;
69970;SDS011;57301;50.328;8.542;2022-08-21T02:50:39;11.00;;;6.68;;
69970;SDS011;57301;50.328;8.542;2022-08-21T02:53:11;13.63;;;7.28;;
69970;SDS011;57301;50.328;8.542;2022-08-21T02:55:46;11.27;;;7.20;;
69970;SDS011;57301;50.328;8.542;2022-08-21T02:58:15;12.40;;;7.15;;
69970;SDS011;57301;50.328;8.542;2022-08-21T03:00:44;12.15;;;7.22;;
69970;SDS011;57301;50.328;8.542;2022-08-21T03:03:10;11.90;;;6.63;;
69970;SDS011;57301;50.328;8.542;2022-08-21T03:05:38;11.18;;;6.85;;
69970;SDS011;57301;50.328;8.542;2022-08-21T03:08:05;10.33;;;6.77;;
69970;SDS011;57301;50.328;8.542;2022-08-21T03:10:38;13.68;;;7.07;;
69970;SDS011;57301;50.328;8.542;2022-08-21T03:13:06;9.15;;;7.07;;
69970;SDS011;57301;50.328;8.542;2022-08-21T03:15:33;10.32;;;6.80;;
69970;SDS011;57301;50.328;8.542;2022-08-21T03:18:01;12.50;;;7.93;;
69970;SDS011;57301;50.328;8.542;2022-08-21T03:20:28;13.60;;;7.50;;
69970;SDS011;57301;50.328;8.542;2022-08-21T03:22:56;17.30;;;7.43;;
69970;SDS011;57301;50.328;8.542;2022-08-21T03:25:23;15.07;;;7.65;;
69970;SDS011;57301;50.328;8.542;2022-08-21T03:28:06;10.00;;;6.63;;
69970;SDS011;57301;50.328;8.542;2022-08-21T03:30:38;12.10;;;7.03;;
69970;SDS011;57301;50.328;8.542;2022-08-21T03:33:06;12.67;;;7.17;;
69970;SDS011;57301;50.328;8.542;2022-08-21T03:35:32;12.70;;;6.70;;
69970;SDS011;57301;50.328;8.542;2022-08-21T03:37:59;11.40;;;7.15;;
69970;SDS011;57301;50.328;8.542;2022-08-21T03:40:26;11.88;;;7.60;;
69970;SDS011;57301;50.328;8.542;2022-08-21T03:42:52;10.82;;;7.13;;
69970;SDS011;57301;50.328;8.542;2022-08-21T03:45:19;12.53;;;7.23;;
69970;SDS011;57301;50.328;8.542;2022-08-21T03:47:50;13.43;;;7.80;;
69970;SDS011;57301;50.328;8.542;2022-08-21T03:50:22;10.05;;;6.95;;
69970;SDS011;57301;50.328;8.542;2022-08-21T03:52:50;10.10;;;6.47;;
69970;SDS011;57301;50.328;8.542;2022-08-21T03:55:17;10.45;;;7.03;;
69970;SDS011;57301;50.328;8.542;2022-08-21T03:57:44;12.43;;;6.73;;
69970;SDS011;57301;50.328;8.542;2022-08-21T04:00:11;10.20;;;6.75;;
69970;SDS011;57301;50.328;8.542;2022-08-21T04:02:39;10.85;;;6.72;;
69970;SDS011;57301;50.328;8.542;2022-08-21T04:05:07;10.52;;;6.68;;
69970;SDS011;57301;50.328;8.542;2022-08-21T04:07:34;11.13;;;6.97;;
69970;SDS011;57301;50.328;8.542;2022-08-21T04:10:02;10.33;;;6.60;;
69970;SDS011;57301;50.328;8.542;2022-08-21T04:12:29;10.32;;;6.68;;
69970;SDS011;57301;50.328;8.542;2022-08-21T04:14:56;12.00;;;7.50;;
69970;SDS011;57301;50.328;8.542;2022-08-21T04:17:23;13.85;;;7.38;;
69970;SDS011;57301;50.328;8.542;2022-08-21T04:19:49;11.80;;;7.18;;
69970;SDS011;57301;50.328;8.542;2022-08-21T04:22:19;12.27;;;7.50;;
69970;SDS011;57301;50.328;8.542;2022-08-21T04:24:45;10.30;;;7.43;;
69970;SDS011;57301;50.328;8.542;2022-08-21T04:27:12;11.02;;;6.93;;
69970;SDS011;57301;50.328;8.542;2022-08-21T04:29:38;12.10;;;7.30;;
69970;SDS011;57301;50.328;8.542;2022-08-21T04:32:05;12.10;;;6.97;;
69970;SDS011;57301;50.328;8.542;2022-08-21T04:34:32;12.40;;;7.77;;
69970;SDS011;57301;50.328;8.542;2022-08-21T04:36:58;10.85;;;7.25;;
69970;SDS011;57301;50.328;8.542;2022-08-21T04:39:25;11.20;;;7.53;;
69970;SDS011;57301;50.328;8.542;2022-08-21T04:41:55;10.82;;;7.32;;
69970;SDS011;57301;50.328;8.542;2022-08-21T04:44:21;9.10;;;6.25;;
69970;SDS011;57301;50.328;8.542;2022-08-21T04:46:48;11.63;;;6.43;;
69970;SDS011;57301;50.328;8.542;2022-08-21T04:49:14;10.50;;;6.70;;
69970;SDS011;57301;50.328;8.542;2022-08-21T04:51:41;12.20;;;7.03;;
69970;SDS011;57301;50.328;8.542;2022-08-21T04:54:17;10.13;;;6.72;;
69970;SDS011;57301;50.328;8.542;2022-08-21T04:56:56;9.63;;;6.72;;
69970;SDS011;57301;50.328;8.542;2022-08-21T04:59:33;11.30;;;6.93;;
69970;SDS011;57301;50.328;8.542;2022-08-21T05:02:05;10.95;;;6.85;;
69970;SDS011;57301;50.328;8.542;2022-08-21T05:04:36;10.00;;;7.13;;
69970;SDS011;57301;50.328;8.542;2022-08-21T05:07:10;10.73;;;7.50;;
69970;SDS011;57301;50.328;8.542;2022-08-21T05:09:43;10.40;;;7.25;;
69970;SDS011;57301;50.328;8.542;2022-08-21T05:12:10;10.17;;;7.53;;
69970;SDS011;57301;50.328;8.542;2022-08-21T05:14:38;12.07;;;7.30;;
69970;SDS011;57301;50.328;8.542;2022-08-21T05:17:04;9.85;;;7.30;;
69970;SDS011;57301;50.328;8.542;2022-08-21T05:19:31;10.57;;;7.30;;
69970;SDS011;57301;50.328;8.542;2022-08-21T05:21:57;9.98;;;7.38;;
69970;SDS011;57301;50.328;8.542;2022-08-21T05:24:24;12.40;;;7.07;;
69970;SDS011;57301;50.328;8.542;2022-08-21T05:26:51;14.95;;;8.65;;
69970;SDS011;57301;50.328;8.542;2022-08-21T05:29:17;16.00;;;10.15;;
69970;SDS011;57301;50.328;8.542;2022-08-21T05:31:44;13.07;;;7.50;;
69970;SDS011;57301;50.328;8.542;2022-08-21T05:34:12;12.23;;;7.30;;
69970;SDS011;57301;50.328;8.542;2022-08-21T05:36:42;9.20;;;6.10;;
69970;SDS011;57301;50.328;8.542;2022-08-21T05:39:08;9.02;;;6.05;;
69970;SDS011;57301;50.328;8.542;2022-08-21T05:41:35;8.00;;;6.07;;
69970;SDS011;57301;50.328;8.542;2022-08-21T05:44:01;9.40;;;6.53;;
69970;SDS011;57301;50.328;8.542;2022-08-21T05:46:35;16.80;;;11.63;;
69970;SDS011;57301;50.328;8.542;2022-08-21T05:49:03;11.63;;;7.93;;
69970;SDS011;57301;50.328;8.542;2022-08-21T05:51:30;8.93;;;6.00;;
69970;SDS011;57301;50.328;8.542;2022-08-21T05:53:57;7.78;;;5.68;;
69970;SDS011;57301;50.328;8.542;2022-08-21T05:56:24;7.50;;;5.32;;
69970;SDS011;57301;50.328;8.542;2022-08-21T05:58:51;9.05;;;5.72;;
69970;SDS011;57301;50.328;8.542;2022-08-21T06:01:17;9.67;;;6.07;;
69970;SDS011;57301;50.328;8.542;2022-08-21T06:03:44;7.68;;;5.68;;
69970;SDS011;57301;50.328;8.542;2022-08-21T06:06:10;8.00;;;5.38;;
69970;SDS011;57301;50.328;8.542;2022-08-21T06:08:37;8.13;;;5.60;;
69970;SDS011;57301;50.328;8.542;2022-08-21T06:11:04;8.02;;;5.20;;
69970;SDS011;57301;50.328;8.542;2022-08-21T06:13:32;7.70;;;5.50;;
69970;SDS011;57301;50.328;8.542;2022-08-21T06:16:07;8.48;;;5.60;;
69970;SDS011;57301;50.328;8.542;2022-08-21T06:18:35;7.57;;;5.45;;
69970;SDS011;57301;50.328;8.542;2022-08-21T06:21:02;8.43;;;5.88;;
69970;SDS011;57301;50.328;8.542;2022-08-21T06:23:29;10.35;;;5.47;;
69970;SDS011;57301;50.328;8.542;2022-08-21T06:25:58;6.37;;;5.03;;
69970;SDS011;57301;50.328;8.542;2022-08-21T06:28:26;6.25;;;5.20;;
69970;SDS011;57301;50.328;8.542;2022-08-21T06:30:53;7.93;;;5.00;;
69970;SDS011;57301;50.328;8.542;2022-08-21T06:33:20;8.50;;;4.82;;
69970;SDS011;57301;50.328;8.542;2022-08-21T06:35:47;8.77;;;5.80;;
69970;SDS011;57301;50.328;8.542;2022-08-21T06:38:14;7.23;;;5.00;;
69970;SDS011;57301;50.328;8.542;2022-08-21T06:40:40;6.78;;;4.85;;
69970;SDS011;57301;50.328;8.542;2022-08-21T06:43:13;8.27;;;4.93;;
69970;SDS011;57301;50.328;8.542;2022-08-21T06:45:42;6.32;;;4.47;;
69970;SDS011;57301;50.328;8.542;2022-08-21T06:48:08;6.07;;;4.45;;
69970;SDS011;57301;50.328;8.542;2022-08-21T06:50:35;7.80;;;4.30;;
69970;SDS011;57301;50.328;8.542;2022-08-21T06:53:09;7.45;;;5.00;;
69970;SDS011;57301;50.328;8.542;2022-08-21T06:55:38;8.20;;;4.28;;
69970;SDS011;57301;50.328;8.542;2022-08-21T06:58:05;8.45;;;4.45;;
69970;SDS011;57301;50.328;8.542;2022-08-21T07:00:33;10.75;;;5.95;;
69970;SDS011;57301;50.328;8.542;2022-08-21T07:03:01;13.60;;;9.13;;
69970;SDS011;57301;50.328;8.542;2022-08-21T07:05:28;8.02;;;4.57;;
69970;SDS011;57301;50.328;8.542;2022-08-21T07:07:56;9.15;;;4.63;;
69970;SDS011;57301;50.328;8.542;2022-08-21T07:10:24;10.68;;;5.22;;
69970;SDS011;57301;50.328;8.542;2022-08-21T07:12:52;9.10;;;5.30;;
69970;SDS011;57301;50.328;8.542;2022-08-21T07:15:26;10.47;;;5.77;;
69970;SDS011;57301;50.328;8.542;2022-08-21T07:17:57;12.80;;;8.30;;
69970;SDS011;57301;50.328;8.542;2022-08-21T07:20:27;10.43;;;5.93;;
69970;SDS011;57301;50.328;8.542;2022-08-21T07:22:59;11.30;;;6.10;;
69970;SDS011;57301;50.328;8.542;2022-08-21T07:25:28;12.13;;;5.40;;
69970;SDS011;57301;50.328;8.542;2022-08-21T07:27:54;11.47;;;5.10;;
69970;SDS011;57301;50.328;8.542;2022-08-21T07:30:21;9.68;;;5.25;;
69970;SDS011;57301;50.328;8.542;2022-08-21T07:32:48;13.20;;;5.43;;
69970;SDS011;57301;50.328;8.542;2022-08-21T07:35:16;10.10;;;5.63;;
69970;SDS011;57301;50.328;8.542;2022-08-21T07:37:43;11.15;;;5.00;;
69970;SDS011;57301;50.328;8.542;2022-08-21T07:40:10;9.27;;;5.00;;
69970;SDS011;57301;50.328;8.542;2022-08-21T07:42:40;12.30;;;5.15;;
69970;SDS011;57301;50.328;8.542;2022-08-21T07:45:09;12.50;;;5.65;;
69970;SDS011;57301;50.328;8.542;2022-08-21T07:47:37;9.38;;;5.68;;
69970;SDS011;57301;50.328;8.542;2022-08-21T07:50:08;10.40;;;5.32;;
69970;SDS011;57301;50.328;8.542;2022-08-21T07:52:37;11.50;;;5.87;;
69970;SDS011;57301;50.328;8.542;2022-08-21T07:55:04;10.27;;;5.80;;
69970;SDS011;57301;50.328;8.542;2022-08-21T07:57:32;15.05;;;6.50;;
69970;SDS011;57301;50.328;8.542;2022-08-21T08:00:02;10.55;;;5.50;;
69970;SDS011;57301;50.328;8.542;2022-08-21T08:02:30;10.95;;;5.55;;
69970;SDS011;57301;50.328;8.542;2022-08-21T08:05:01;10.00;;;5.47;;
69970;SDS011;57301;50.328;8.542;2022-08-21T08:07:32;14.93;;;6.13;;
69970;SDS011;57301;50.328;8.542;2022-08-21T08:10:00;11.07;;;5.05;;
69970;SDS011;57301;50.328;8.542;2022-08-21T08:12:28;13.43;;;5.50;;
69970;SDS011;57301;50.328;8.542;2022-08-21T08:14:56;10.38;;;5.10;;
69970;SDS011;57301;50.328;8.542;2022-08-21T08:17:24;11.83;;;5.10;;
69970;SDS011;57301;50.328;8.542;2022-08-21T08:19:51;12.85;;;5.15;;
69970;SDS011;57301;50.328;8.542;2022-08-21T08:22:20;13.25;;;5.25;;
69970;SDS011;57301;50.328;8.542;2022-08-21T08:24:50;8.32;;;3.95;;
69970;SDS011;57301;50.328;8.542;2022-08-21T08:27:18;11.70;;;3.95;;
69970;SDS011;57301;50.328;8.542;2022-08-21T08:29:48;12.63;;;3.70;;
69970;SDS011;57301;50.328;8.542;2022-08-21T08:32:15;11.10;;;5.13;;
69970;SDS011;57301;50.328;8.542;2022-08-21T08:34:42;10.18;;;4.03;;
69970;SDS011;57301;50.328;8.542;2022-08-21T08:37:09;7.63;;;2.90;;
69970;SDS011;57301;50.328;8.542;2022-08-21T08:39:37;7.32;;;2.90;;
69970;SDS011;57301;50.328;8.542;2022-08-21T08:42:06;11.90;;;3.33;;
69970;SDS011;57301;50.328;8.542;2022-08-21T08:47:43;13.88;;;8.52;;
69970;SDS011;57301;50.328;8.542;2022-08-21T08:53:04;7.95;;;3.40;;
69970;SDS011;57301;50.328;8.542;2022-08-21T08:55:34;8.63;;;3.37;;
69970;SDS011;57301;50.328;8.542;2022-08-21T08:58:03;8.75;;;3.33;;
69970;SDS011;57301;50.328;8.542;2022-08-21T09:00:30;7.15;;;3.30;;
69970;SDS011;57301;50.328;8.542;2022-08-21T09:02:59;10.20;;;3.53;;
69970;SDS011;57301;50.328;8.542;2022-08-21T09:05:28;10.18;;;3.80;;
69970;SDS011;57301;50.328;8.542;2022-08-21T09:10:30;11.98;;;4.10;;
69970;SDS011;57301;50.328;8.542;2022-08-21T09:16:05;8.77;;;3.72;;
69970;SDS011;57301;50.328;8.542;2022-08-21T09:21:23;8.40;;;3.60;;
69970;SDS011;57301;50.328;8.542;2022-08-21T09:26:43;8.63;;;4.40;;
69970;SDS011;57301;50.328;8.542;2022-08-21T09:29:21;8.80;;;4.00;;
69970;SDS011;57301;50.328;8.542;2022-08-21T09:31:55;9.07;;;4.07;;
69970;SDS011;57301;50.328;8.542;2022-08-21T09:34:29;10.20;;;4.43;;
69970;SDS011;57301;50.328;8.542;2022-08-21T09:36:57;7.50;;;3.30;;
69970;SDS011;57301;50.328;8.542;2022-08-21T09:39:37;10.68;;;3.80;;
69970;SDS011;57301;50.328;8.542;2022-08-21T09:42:09;10.95;;;3.50;;
69970;SDS011;57301;50.328;8.542;2022-08-21T09:44:37;10.35;;;3.40;;
69970;SDS011;57301;50.328;8.542;2022-08-21T09:47:09;6.60;;;3.30;;
69970;SDS011;57301;50.328;8.542;2022-08-21T09:49:40;9.23;;;3.13;;
69970;SDS011;57301;50.328;8.542;2022-08-21T09:52:27;8.45;;;3.33;;
69970;SDS011;57301;50.328;8.542;2022-08-21T09:54:54;7.93;;;3.28;;
69970;SDS011;57301;50.328;8.542;2022-08-21T09:57:26;7.80;;;3.30;;
69970;SDS011;57301;50.328;8.542;2022-08-21T10:00:15;9.37;;;3.20;;
69970;SDS011;57301;50.328;8.542;2022-08-21T10:02:50;7.45;;;3.30;;
69970;SDS011;57301;50.328;8.542;2022-08-21T10:05:21;9.30;;;3.35;;
69970;SDS011;57301;50.328;8.542;2022-08-21T10:07:51;6.80;;;3.22;;
69970;SDS011;57301;50.328;8.542;2022-08-21T10:10:31;7.13;;;3.13;;
69970;SDS011;57301;50.328;8.542;2022-08-21T10:13:17;9.37;;;3.33;;
69970;SDS011;57301;50.328;8.542;2022-08-21T10:16:01;10.25;;;4.53;;
69970;SDS011;57301;50.328;8.542;2022-08-21T10:18:39;5.97;;;2.60;;
69970;SDS011;57301;50.328;8.542;2022-08-21T10:21:21;8.85;;;2.70;;
69970;SDS011;57301;50.328;8.542;2022-08-21T10:24:07;5.80;;;2.30;;
69970;SDS011;57301;50.328;8.542;2022-08-21T10:37:43;6.65;;;2.17;;
69970;SDS011;57301;50.328;8.542;2022-08-21T10:40:26;5.07;;;2.27;;
69970;SDS011;57301;50.328;8.542;2022-08-21T10:47:55;4.93;;;2.00;;
69970;SDS011;57301;50.328;8.542;2022-08-21T10:50:46;6.25;;;2.38;;
69970;SDS011;57301;50.328;8.542;2022-08-21T10:55:55;6.10;;;2.22;;
69970;SDS011;57301;50.328;8.542;2022-08-21T10:58:29;6.20;;;2.25;;
69970;SDS011;57301;50.328;8.542;2022-08-21T11:01:34;5.57;;;2.00;;
69970;SDS011;57301;50.328;8.542;2022-08-21T11:04:32;5.35;;;2.20;;
69970;SDS011;57301;50.328;8.542;2022-08-21T11:10:24;8.60;;;2.20;;
69970;SDS011;57301;50.328;8.542;2022-08-21T11:12:54;5.97;;;2.00;;
69970;SDS011;57301;50.328;8.542;2022-08-21T11:18:22;5.13;;;1.85;;
69970;SDS011;57301;50.328;8.542;2022-08-21T11:23:50;4.32;;;1.60;;
69970;SDS011;57301;50.328;8.542;2022-08-21T11:26:33;5.50;;;1.95;;
69970;SDS011;57301;50.328;8.542;2022-08-21T11:29:09;4.53;;;1.67;;
69970;SDS011;57301;50.328;8.542;2022-08-21T11:31:51;4.30;;;1.85;;
69970;SDS011;57301;50.328;8.542;2022-08-21T11:34:58;4.10;;;1.70;;
69970;SDS011;57301;50.328;8.542;2022-08-21T11:46:25;5.53;;;2.10;;
69970;SDS011;57301;50.328;8.542;2022-08-21T11:52:08;4.90;;;1.90;;
69970;SDS011;57301;50.328;8.542;2022-08-21T11:54:47;4.68;;;2.00;;
69970;SDS011;57301;50.328;8.542;2022-08-21T11:57:18;3.65;;;1.75;;
69970;SDS011;57301;50.328;8.542;2022-08-21T12:02:28;4.17;;;1.73;;
69970;SDS011;57301;50.328;8.542;2022-08-21T12:05:05;3.55;;;1.70;;
69970;SDS011;57301;50.328;8.542;2022-08-21T12:07:41;5.40;;;1.80;;
69970;SDS011;57301;50.328;8.542;2022-08-21T12:10:18;4.20;;;1.75;;
69970;SDS011;57301;50.328;8.542;2022-08-21T12:13:05;3.38;;;1.60;;
69970;SDS011;57301;50.328;8.542;2022-08-21T12:15:34;4.40;;;1.80;;
69970;SDS011;57301;50.328;8.542;2022-08-21T12:18:03;4.20;;;1.75;;
69970;SDS011;57301;50.328;8.542;2022-08-21T12:20:39;4.20;;;1.73;;
69970;SDS011;57301;50.328;8.542;2022-08-21T12:23:18;3.65;;;1.60;;
69970;SDS011;57301;50.328;8.542;2022-08-21T12:29:02;5.10;;;1.70;;
69970;SDS011;57301;50.328;8.542;2022-08-21T12:31:47;5.25;;;1.63;;
69970;SDS011;57301;50.328;8.542;2022-08-21T12:34:44;3.97;;;1.90;;
69970;SDS011;57301;50.328;8.542;2022-08-21T12:39:57;5.15;;;1.90;;
69970;SDS011;57301;50.328;8.542;2022-08-21T12:42:31;4.60;;;1.70;;
69970;SDS011;57301;50.328;8.542;2022-08-21T12:45:11;4.40;;;1.60;;
69970;SDS011;57301;50.328;8.542;2022-08-21T12:51:04;5.05;;;1.80;;
69970;SDS011;57301;50.328;8.542;2022-08-21T12:53:39;4.28;;;1.80;;
69970;SDS011;57301;50.328;8.542;2022-08-21T12:56:10;4.07;;;1.80;;
69970;SDS011;57301;50.328;8.542;2022-08-21T12:59:24;5.32;;;1.83;;
69970;SDS011;57301;50.328;8.542;2022-08-21T13:01:49;4.50;;;1.67;;
69970;SDS011;57301;50.328;8.542;2022-08-21T13:04:22;4.50;;;1.70;;
69970;SDS011;57301;50.328;8.542;2022-08-21T13:06:53;4.50;;;1.60;;
69970;SDS011;57301;50.328;8.542;2022-08-21T13:09:24;5.57;;;1.60;;
69970;SDS011;57301;50.328;8.542;2022-08-21T13:11:53;3.55;;;1.83;;
69970;SDS011;57301;50.328;8.542;2022-08-21T13:14:35;6.57;;;3.53;;
69970;SDS011;57301;50.328;8.542;2022-08-21T13:17:11;4.97;;;1.80;;
69970;SDS011;57301;50.328;8.542;2022-08-21T13:19:38;5.35;;;1.45;;
69970;SDS011;57301;50.328;8.542;2022-08-21T13:22:05;4.00;;;1.60;;
69970;SDS011;57301;50.328;8.542;2022-08-21T13:24:58;4.72;;;2.00;;
69970;SDS011;57301;50.328;8.542;2022-08-21T13:27:30;4.40;;;1.70;;
69970;SDS011;57301;50.328;8.542;2022-08-21T13:30:02;4.53;;;1.60;;
69970;SDS011;57301;50.328;8.542;2022-08-21T13:32:35;5.03;;;1.60;;
69970;SDS011;57301;50.328;8.542;2022-08-21T13:35:07;4.33;;;1.60;;
69970;SDS011;57301;50.328;8.542;2022-08-21T13:37:37;3.00;;;1.40;;
69970;SDS011;57301;50.328;8.542;2022-08-21T13:40:07;4.85;;;1.60;;
69970;SDS011;57301;50.328;8.542;2022-08-21T13:42:38;3.47;;;1.42;;
69970;SDS011;57301;50.328;8.542;2022-08-21T13:45:11;3.75;;;1.50;;
69970;SDS011;57301;50.328;8.542;2022-08-21T13:47:40;4.43;;;1.67;;
69970;SDS011;57301;50.328;8.542;2022-08-21T13:50:07;5.50;;;1.65;;
69970;SDS011;57301;50.328;8.542;2022-08-21T13:52:44;3.50;;;1.50;;
69970;SDS011;57301;50.328;8.542;2022-08-21T13:55:20;3.78;;;1.50;;
69970;SDS011;57301;50.328;8.542;2022-08-21T13:57:47;5.40;;;1.60;;
69970;SDS011;57301;50.328;8.542;2022-08-21T14:00:26;4.03;;;1.40;;
69970;SDS011;57301;50.328;8.542;2022-08-21T14:02:59;3.72;;;1.65;;
69970;SDS011;57301;50.328;8.542;2022-08-21T14:05:29;3.85;;;1.80;;
69970;SDS011;57301;50.328;8.542;2022-08-21T14:08:10;3.50;;;1.55;;
69970;SDS011;57301;50.328;8.542;2022-08-21T14:10:55;4.47;;;1.50;;
69970;SDS011;57301;50.328;8.542;2022-08-21T14:16:09;4.70;;;1.58;;
69970;SDS011;57301;50.328;8.542;2022-08-21T14:23:59;3.63;;;1.50;;
69970;SDS011;57301;50.328;8.542;2022-08-21T14:26:30;3.67;;;1.60;;
69970;SDS011;57301;50.328;8.542;2022-08-21T14:28:58;3.72;;;1.60;;
69970;SDS011;57301;50.328;8.542;2022-08-21T14:31:34;4.82;;;1.52;;
69970;SDS011;57301;50.328;8.542;2022-08-21T14:34:09;4.00;;;1.50;;
69970;SDS011;57301;50.328;8.542;2022-08-21T14:36:44;4.10;;;2.38;;
69970;SDS011;57301;50.328;8.542;2022-08-21T14:39:12;5.47;;;3.23;;
69970;SDS011;57301;50.328;8.542;2022-08-21T14:41:39;4.90;;;2.50;;
69970;SDS011;57301;50.328;8.542;2022-08-21T14:44:06;3.88;;;2.30;;
69970;SDS011;57301;50.328;8.542;2022-08-21T14:46:35;3.60;;;1.50;;
69970;SDS011;57301;50.328;8.542;2022-08-21T14:49:25;3.33;;;1.63;;
69970;SDS011;57301;50.328;8.542;2022-08-21T14:51:56;3.20;;;1.40;;
69970;SDS011;57301;50.328;8.542;2022-08-21T14:54:25;3.45;;;1.35;;
69970;SDS011;57301;50.328;8.542;2022-08-21T14:57:04;4.85;;;1.67;;
69970;SDS011;57301;50.328;8.542;2022-08-21T14:59:32;3.03;;;1.33;;
69970;SDS011;57301;50.328;8.542;2022-08-21T15:02:00;4.78;;;1.60;;
69970;SDS011;57301;50.328;8.542;2022-08-21T15:04:27;3.63;;;1.47;;
69970;SDS011;57301;50.328;8.542;2022-08-21T15:06:54;3.17;;;1.20;;
69970;SDS011;57301;50.328;8.542;2022-08-21T15:09:20;3.65;;;1.20;;
69970;SDS011;57301;50.328;8.542;2022-08-21T15:11:47;3.10;;;1.33;;
69970;SDS011;57301;50.328;8.542;2022-08-21T15:14:18;5.13;;;1.40;;
69970;SDS011;57301;50.328;8.542;2022-08-21T15:16:47;3.97;;;1.60;;
69970;SDS011;57301;50.328;8.542;2022-08-21T15:19:15;3.25;;;1.50;;
69970;SDS011;57301;50.328;8.542;2022-08-21T15:21:42;6.75;;;1.58;;
69970;SDS011;57301;50.328;8.542;2022-08-21T15:24:08;4.38;;;1.30;;
69970;SDS011;57301;50.328;8.542;2022-08-21T15:26:35;3.78;;;1.38;;
69970;SDS011;57301;50.328;8.542;2022-08-21T15:29:02;3.33;;;1.60;;
69970;SDS011;57301;50.328;8.542;2022-08-21T15:31:32;7.35;;;3.92;;
69970;SDS011;57301;50.328;8.542;2022-08-21T15:34:00;4.28;;;2.03;;
69970;SDS011;57301;50.328;8.542;2022-08-21T15:36:26;3.42;;;1.35;;
69970;SDS011;57301;50.328;8.542;2022-08-21T15:38:53;3.58;;;1.60;;
69970;SDS011;57301;50.328;8.542;2022-08-21T15:41:19;3.87;;;1.40;;
69970;SDS011;57301;50.328;8.542;2022-08-21T15:43:47;5.10;;;1.35;;
69970;SDS011;57301;50.328;8.542;2022-08-21T15:46:16;3.42;;;1.20;;
69970;SDS011;57301;50.328;8.542;2022-08-21T15:48:44;3.20;;;1.40;;
69970;SDS011;57301;50.328;8.542;2022-08-21T15:51:13;4.03;;;1.63;;
69970;SDS011;57301;50.328;8.542;2022-08-21T15:53:42;4.97;;;1.30;;
69970;SDS011;57301;50.328;8.542;2022-08-21T15:56:55;3.83;;;1.30;;
69970;SDS011;57301;50.328;8.542;2022-08-21T15:59:02;4.15;;;1.67;;
69970;SDS011;57301;50.328;8.542;2022-08-21T16:01:33;4.53;;;2.10;;
69970;SDS011;57301;50.328;8.542;2022-08-21T16:04:10;3.42;;;1.55;;
69970;SDS011;57301;50.328;8.542;2022-08-21T16:06:48;3.83;;;1.40;;
69970;SDS011;57301;50.328;8.542;2022-08-21T16:09:22;3.72;;;1.60;;
69970;SDS011;57301;50.328;8.542;2022-08-21T16:11:49;3.78;;;1.33;;
69970;SDS011;57301;50.328;8.542;2022-08-21T16:14:16;4.25;;;1.40;;
69970;SDS011;57301;50.328;8.542;2022-08-21T16:16:43;3.78;;;1.50;;
69970;SDS011;57301;50.328;8.542;2022-08-21T16:19:10;4.80;;;1.67;;
69970;SDS011;57301;50.328;8.542;2022-08-21T16:21:38;3.47;;;1.50;;
69970;SDS011;57301;50.328;8.542;2022-08-21T16:24:05;5.40;;;1.80;;
69970;SDS011;57301;50.328;8.542;2022-08-21T16:26:32;3.60;;;1.70;;